createdAt,value
2023-05-22T00:00:14.566Z,93.31
2023-05-22T00:01:14.369Z,93.92
2023-05-22T00:02:15.519Z,93.51
2023-05-22T00:03:14.479Z,93.55
2023-05-22T00:04:14.465Z,93.86
2023-05-22T00:05:14.424Z,93.76
2023-05-22T00:06:14.448Z,93.35
2023-05-22T00:07:14.307Z,93.86
2023-05-22T00:08:17.621Z,94.17
2023-05-22T00:09:14.282Z,93.66
2023-05-22T00:10:14.432Z,93.55
2023-05-22T00:11:14.264Z,93.86
2023-05-22T00:12:14.393Z,93.35
2023-05-22T00:13:14.247Z,93.35
2023-05-22T00:14:14.369Z,93.45
2023-05-22T00:15:14.220Z,93.96
2023-05-22T00:16:14.345Z,94.47
2023-05-22T00:17:14.239Z,93.35
2023-05-22T00:18:14.347Z,93.45
2023-05-22T00:19:14.231Z,93.35
2023-05-22T00:20:15.299Z,93.76
2023-05-22T00:21:14.188Z,94.27
2023-05-22T00:22:14.330Z,93.66
2023-05-22T00:23:15.698Z,93.66
2023-05-22T00:24:14.272Z,93.66
2023-05-22T00:25:14.117Z,93.76
2023-05-22T00:26:14.301Z,93.55
2023-05-22T00:27:14.124Z,93.86
2023-05-22T00:28:14.194Z,93.86
2023-05-22T00:29:14.091Z,93.70
2023-05-22T00:30:14.227Z,94.01
2023-05-22T00:31:14.063Z,93.90
2023-05-22T00:32:14.166Z,94.01
2023-05-22T00:33:14.039Z,94.01
2023-05-22T00:34:14.185Z,94.42
2023-05-22T00:35:14.018Z,94.42
2023-05-22T00:36:14.161Z,94.72
2023-05-22T00:37:14.027Z,94.62
2023-05-22T00:38:14.181Z,95.33
2023-05-22T00:39:13.992Z,94.52
2023-05-22T00:40:14.096Z,94.82
2023-05-22T00:41:13.961Z,94.78
2023-05-22T00:42:14.122Z,94.07
2023-05-22T00:43:13.966Z,94.31
2023-05-22T00:44:14.129Z,94.01
2023-05-22T00:45:13.917Z,94.01
2023-05-22T00:46:14.073Z,94.62
2023-05-22T00:47:13.894Z,94.52
2023-05-22T00:48:14.071Z,94.31
2023-05-22T00:49:13.870Z,94.92
2023-05-22T00:50:14.074Z,94.11
2023-05-22T00:51:13.842Z,95.03
2023-05-22T00:52:13.965Z,94.01
2023-05-22T00:53:13.845Z,94.31
2023-05-22T00:54:13.983Z,94.21
2023-05-22T00:55:13.813Z,94.11
2023-05-22T00:56:13.996Z,94.21
2023-05-22T00:57:13.791Z,94.52
2023-05-22T00:58:13.945Z,95.23
2023-05-22T00:59:13.763Z,94.31
2023-05-22T01:00:13.928Z,94.31
2023-05-22T01:01:13.737Z,94.46
2023-05-22T01:02:13.999Z,94.46
2023-05-22T01:03:13.829Z,94.66
2023-05-22T01:04:13.964Z,94.66
2023-05-22T01:05:13.731Z,94.87
2023-05-22T01:06:15.808Z,94.87
2023-05-22T01:07:13.697Z,94.87
2023-05-22T01:08:13.809Z,94.76
2023-05-22T01:09:13.670Z,94.87
2023-05-22T01:10:13.797Z,94.87
2023-05-22T01:11:13.634Z,94.97
2023-05-22T01:12:13.797Z,95.37
2023-05-22T01:13:13.633Z,95.17
2023-05-22T01:14:13.827Z,95.48
2023-05-22T01:15:13.600Z,95.07
2023-05-22T01:16:13.644Z,94.97
2023-05-22T01:17:13.569Z,95.58
2023-05-22T01:18:13.848Z,94.97
2023-05-22T01:19:13.624Z,94.76
2023-05-22T01:20:13.791Z,94.97
2023-05-22T01:21:13.539Z,95.01
2023-05-22T01:22:13.671Z,95.12
2023-05-22T01:23:13.541Z,95.21
2023-05-22T01:24:13.691Z,95.42
2023-05-22T01:25:13.504Z,95.42
2023-05-22T01:26:13.592Z,95.62
2023-05-22T01:27:13.494Z,95.42
2023-05-22T01:28:13.550Z,95.52
2023-05-22T01:29:13.472Z,95.42
2023-05-22T01:30:13.620Z,95.52
2023-05-22T01:31:13.429Z,95.52
2023-05-22T01:32:13.600Z,95.73
2023-05-22T01:33:13.576Z,95.42
2023-05-22T01:34:13.441Z,96.03
2023-05-22T01:35:13.399Z,96.75
2023-05-22T01:36:14.480Z,96.84
2023-05-22T01:37:13.370Z,97.25
2023-05-22T01:38:13.540Z,96.75
2023-05-22T01:39:13.338Z,95.42
2023-05-22T01:40:13.442Z,96.75
2023-05-22T01:41:13.313Z,96.44
2023-05-22T01:42:15.399Z,95.52
2023-05-22T01:43:13.333Z,96.23
2023-05-22T01:44:14.346Z,95.52
2023-05-22T01:45:13.291Z,96.14
2023-05-22T01:46:14.519Z,95.32
2023-05-22T01:47:13.256Z,95.83
2023-05-22T01:48:13.363Z,95.12
2023-05-22T01:49:13.256Z,95.73
2023-05-22T01:50:13.295Z,95.62
2023-05-22T01:51:13.236Z,95.52
2023-05-22T01:52:13.293Z,95.73
2023-05-22T01:53:13.198Z,95.83
2023-05-22T01:54:13.291Z,96.14
2023-05-22T01:55:13.205Z,96.14
2023-05-22T01:56:13.316Z,96.03
2023-05-22T01:57:13.154Z,96.34
2023-05-22T01:58:13.236Z,96.23
2023-05-22T01:59:13.151Z,96.23
2023-05-22T02:00:13.307Z,96.95
2023-05-22T02:01:13.173Z,97.56
2023-05-22T02:02:13.270Z,97.77
2023-05-22T02:03:13.289Z,97.56
2023-05-22T02:04:13.152Z,97.05
2023-05-22T02:05:13.102Z,96.84
2023-05-22T02:06:13.169Z,96.95
2023-05-22T02:07:13.049Z,97.05
2023-05-22T02:08:13.199Z,97.46
2023-05-22T02:09:13.035Z,97.46
2023-05-22T02:10:13.100Z,97.36
2023-05-22T02:11:13.033Z,97.56
2023-05-22T02:12:13.123Z,97.36
2023-05-22T02:13:12.984Z,97.46
2023-05-22T02:14:13.131Z,97.56
2023-05-22T02:15:12.978Z,96.34
2023-05-22T02:16:13.101Z,96.75
2023-05-22T02:17:12.938Z,97.05
2023-05-22T02:18:13.196Z,97.77
2023-05-22T02:19:12.996Z,97.56
2023-05-22T02:20:13.117Z,97.87
2023-05-22T02:21:12.901Z,97.87
2023-05-22T02:22:13.040Z,97.66
2023-05-22T02:23:12.885Z,96.95
2023-05-22T02:24:12.990Z,98.07
2023-05-22T02:25:12.871Z,96.75
2023-05-22T02:26:12.965Z,96.14
2023-05-22T02:27:12.843Z,96.44
2023-05-22T02:28:12.917Z,96.44
2023-05-22T02:29:12.832Z,96.84
2023-05-22T02:30:12.985Z,96.64
2023-05-22T02:31:12.851Z,96.84
2023-05-22T02:32:13.876Z,97.25
2023-05-22T02:33:12.793Z,97.05
2023-05-22T02:34:12.858Z,96.95
2023-05-22T02:35:12.745Z,97.05
2023-05-22T02:36:12.929Z,96.84
2023-05-22T02:37:12.738Z,97.25
2023-05-22T02:38:12.951Z,97.16
2023-05-22T02:39:12.711Z,97.05
2023-05-22T02:40:12.856Z,96.95
2023-05-22T02:41:12.714Z,96.54
2023-05-22T02:42:12.867Z,96.44
2023-05-22T02:43:12.681Z,96.44
2023-05-22T02:44:12.862Z,96.64
2023-05-22T02:45:12.653Z,96.54
2023-05-22T02:46:12.824Z,96.64
2023-05-22T02:47:12.637Z,96.39
2023-05-22T02:48:13.858Z,96.30
2023-05-22T02:49:12.603Z,96.39
2023-05-22T02:50:12.801Z,96.80
2023-05-22T02:51:12.598Z,97.31
2023-05-22T02:52:12.673Z,97.11
2023-05-22T02:53:12.580Z,97.11
2023-05-22T02:54:12.694Z,97.21
2023-05-22T02:55:12.546Z,96.91
2023-05-22T02:56:12.767Z,97.11
2023-05-22T02:57:12.523Z,97.31
2023-05-22T02:58:12.665Z,97.67
2023-05-22T02:59:12.524Z,97.62
2023-05-22T03:00:12.633Z,97.37
2023-05-22T03:01:12.492Z,97.37
2023-05-22T03:02:12.670Z,97.37
2023-05-22T03:03:12.542Z,97.67
2023-05-22T03:04:13.051Z,97.27
2023-05-22T03:05:12.428Z,97.57
2023-05-22T03:06:12.581Z,96.76
2023-05-22T03:07:12.455Z,97.16
2023-05-22T03:08:12.593Z,97.47
2023-05-22T03:09:12.397Z,97.47
2023-05-22T03:10:12.514Z,97.78
2023-05-22T03:11:12.392Z,97.88
2023-05-22T03:12:12.560Z,97.78
2023-05-22T03:13:12.350Z,97.88
2023-05-22T03:14:12.524Z,97.88
2023-05-22T03:15:12.327Z,98.39
2023-05-22T03:16:12.515Z,98.08
2023-05-22T03:17:12.338Z,98.08
2023-05-22T03:18:14.518Z,97.88
2023-05-22T03:19:12.351Z,97.88
2023-05-22T03:20:13.403Z,98.18
2023-05-22T03:21:12.274Z,98.08
2023-05-22T03:22:12.430Z,98.08
2023-05-22T03:23:12.255Z,98.18
2023-05-22T03:24:13.428Z,97.88
2023-05-22T03:25:12.241Z,98.18
2023-05-22T03:26:12.448Z,97.67
2023-05-22T03:27:12.220Z,97.88
2023-05-22T03:28:12.340Z,98.18
2023-05-22T03:29:12.204Z,98.18
2023-05-22T03:30:12.353Z,98.28
2023-05-22T03:31:12.163Z,98.39
2023-05-22T03:32:12.400Z,98.28
2023-05-22T03:33:12.228Z,98.28
2023-05-22T03:34:12.350Z,98.18
2023-05-22T03:35:12.123Z,98.08
2023-05-22T03:36:12.282Z,98.18
2023-05-22T03:37:12.133Z,98.39
2023-05-22T03:38:12.314Z,98.39
2023-05-22T03:39:12.076Z,97.98
2023-05-22T03:40:12.208Z,98.18
2023-05-22T03:41:12.062Z,98.28
2023-05-22T03:42:12.298Z,98.49
2023-05-22T03:43:12.045Z,98.18
2023-05-22T03:44:12.240Z,97.98
2023-05-22T03:45:12.028Z,97.98
2023-05-22T03:46:12.080Z,98.08
2023-05-22T03:47:12.031Z,98.03
2023-05-22T03:48:12.111Z,98.08
2023-05-22T03:49:11.976Z,98.14
2023-05-22T03:50:12.091Z,98.34
2023-05-22T03:51:11.956Z,98.44
2023-05-22T03:52:12.028Z,99.05
2023-05-22T03:53:11.938Z,99.46
2023-05-22T03:54:13.050Z,98.85
2023-05-22T03:55:11.918Z,98.75
2023-05-22T03:56:12.067Z,98.95
2023-05-22T03:57:11.913Z,99.46
2023-05-22T03:58:11.964Z,99.99
2023-05-22T03:59:11.869Z,99.99
2023-05-22T04:00:12.013Z,99.99
2023-05-22T04:01:11.851Z,99.99
2023-05-22T04:02:13.005Z,99.99
2023-05-22T04:03:11.980Z,99.99
2023-05-22T04:04:11.871Z,99.99
2023-05-22T04:05:11.904Z,99.99
2023-05-22T04:06:11.923Z,99.99
2023-05-22T04:07:11.780Z,99.99
2023-05-22T04:08:11.931Z,99.99
2023-05-22T04:09:11.754Z,99.99
2023-05-22T04:10:11.831Z,99.99
2023-05-22T04:11:11.751Z,99.99
2023-05-22T04:12:11.825Z,99.99
2023-05-22T04:13:11.945Z,99.99
2023-05-22T04:14:11.841Z,99.99
2023-05-22T04:15:11.698Z,99.99
2023-05-22T04:16:11.788Z,99.99
2023-05-22T04:17:11.676Z,99.99
2023-05-22T04:18:11.865Z,99.99
2023-05-22T04:19:11.729Z,99.99
2023-05-22T04:20:11.811Z,99.97
2023-05-22T04:21:11.639Z,99.99
2023-05-22T04:22:11.696Z,99.99
2023-05-22T04:23:11.640Z,99.99
2023-05-22T04:24:11.766Z,99.99
2023-05-22T04:25:11.607Z,99.99
2023-05-22T04:26:11.722Z,99.99
2023-05-22T04:27:11.582Z,99.99
2023-05-22T04:28:11.640Z,99.99
2023-05-22T04:29:11.589Z,99.99
2023-05-22T04:30:11.704Z,99.99
2023-05-22T04:31:11.556Z,99.99
2023-05-22T04:32:11.669Z,99.99
2023-05-22T04:33:11.560Z,99.99
2023-05-22T04:34:11.618Z,99.99
2023-05-22T04:35:11.483Z,99.99
2023-05-22T04:36:12.577Z,99.99
2023-05-22T04:37:11.462Z,99.99
2023-05-22T04:38:11.609Z,99.99
2023-05-22T04:39:11.449Z,99.99
2023-05-22T04:40:11.576Z,99.99
2023-05-22T04:41:11.444Z,99.99
2023-05-22T04:42:11.557Z,99.99
2023-05-22T04:43:11.420Z,99.99
2023-05-22T04:44:11.544Z,99.99
2023-05-22T04:45:11.420Z,99.99
2023-05-22T04:46:11.457Z,99.99
2023-05-22T04:47:11.535Z,99.99
2023-05-22T04:48:34.504Z,99.99
2023-05-22T04:49:11.359Z,99.92
2023-05-22T04:50:11.561Z,99.92
2023-05-22T04:51:11.327Z,99.82
2023-05-22T04:52:11.415Z,99.62
2023-05-22T04:53:11.308Z,99.62
2023-05-22T04:54:11.355Z,99.72
2023-05-22T04:55:11.292Z,99.82
2023-05-22T04:56:13.126Z,99.92
2023-05-22T04:57:11.268Z,99.82
2023-05-22T04:58:11.382Z,99.92
2023-05-22T04:59:11.244Z,99.99
2023-05-22T05:00:11.289Z,99.99
2023-05-22T05:01:11.335Z,99.99
2023-05-22T05:02:11.357Z,99.88
2023-05-22T05:03:11.345Z,99.88
2023-05-22T05:04:11.578Z,99.67
2023-05-22T05:05:11.210Z,99.67
2023-05-22T05:06:11.375Z,99.67
2023-05-22T05:07:11.181Z,99.88
2023-05-22T05:08:11.345Z,99.77
2023-05-22T05:09:11.184Z,99.77
2023-05-22T05:10:11.284Z,99.99
2023-05-22T05:11:11.145Z,99.99
2023-05-22T05:12:12.329Z,99.88
2023-05-22T05:13:11.281Z,99.99
2023-05-22T05:14:11.172Z,99.67
2023-05-22T05:15:11.248Z,99.57
2023-05-22T05:16:11.252Z,99.67
2023-05-22T05:17:11.090Z,99.77
2023-05-22T05:18:12.203Z,99.88
2023-05-22T05:19:11.192Z,99.73
2023-05-22T05:20:11.135Z,99.63
2023-05-22T05:21:11.150Z,99.93
2023-05-22T05:22:12.185Z,99.63
2023-05-22T05:23:10.997Z,99.83
2023-05-22T05:24:11.111Z,99.63
2023-05-22T05:25:11.816Z,99.42
2023-05-22T05:26:11.132Z,99.99
2023-05-22T05:27:11.087Z,99.99
2023-05-22T05:28:11.000Z,99.99
2023-05-22T05:29:10.998Z,99.93
2023-05-22T05:30:12.050Z,99.83
2023-05-22T05:31:10.906Z,99.73
2023-05-22T05:32:11.329Z,99.83
2023-05-22T05:33:10.949Z,99.73
2023-05-22T05:34:11.061Z,99.73
2023-05-22T05:35:10.974Z,99.22
2023-05-22T05:36:11.037Z,99.27
2023-05-22T05:37:10.895Z,99.38
2023-05-22T05:38:10.917Z,99.48
2023-05-22T05:39:10.878Z,99.99
2023-05-22T05:40:10.977Z,99.99
2023-05-22T05:41:10.814Z,99.38
2023-05-22T05:42:10.902Z,99.58
2023-05-22T05:43:10.785Z,99.58
2023-05-22T05:44:10.874Z,99.78
2023-05-22T05:45:10.770Z,99.99
2023-05-22T05:46:10.997Z,99.48
2023-05-22T05:47:10.792Z,99.94
2023-05-22T05:48:10.911Z,99.84
2023-05-22T05:49:10.739Z,99.53
2023-05-22T05:50:10.802Z,99.13
2023-05-22T05:51:10.696Z,99.43
2023-05-22T05:52:10.876Z,99.22
2023-05-22T05:53:10.672Z,99.22
2023-05-22T05:54:10.849Z,98.82
2023-05-22T05:55:10.656Z,98.82
2023-05-22T05:56:10.860Z,98.72
2023-05-22T05:57:10.639Z,98.62
2023-05-22T05:58:10.850Z,98.72
2023-05-22T05:59:10.642Z,98.62
2023-05-22T06:00:10.768Z,98.21
2023-05-22T06:01:10.589Z,98.77
2023-05-22T06:02:10.833Z,98.88
2023-05-22T06:03:10.726Z,98.27
2023-05-22T06:04:10.684Z,98.07
2023-05-22T06:05:10.581Z,98.68
2023-05-22T06:06:10.707Z,98.37
2023-05-22T06:07:10.532Z,98.88
2023-05-22T06:08:10.618Z,98.57
2023-05-22T06:09:10.521Z,98.68
2023-05-22T06:10:10.517Z,98.57
2023-05-22T06:11:10.477Z,98.57
2023-05-22T06:12:10.523Z,98.57
2023-05-22T06:13:10.479Z,98.27
2023-05-22T06:14:10.583Z,98.27
2023-05-22T06:15:10.452Z,98.47
2023-05-22T06:16:10.689Z,98.16
2023-05-22T06:17:10.420Z,98.73
2023-05-22T06:18:10.482Z,97.76
2023-05-22T06:19:10.409Z,98.63
2023-05-22T06:20:10.521Z,99.13
2023-05-22T06:21:10.387Z,99.44
2023-05-22T06:22:10.520Z,99.33
2023-05-22T06:23:10.370Z,99.24
2023-05-22T06:24:10.404Z,99.33
2023-05-22T06:25:10.371Z,99.33
2023-05-22T06:26:10.421Z,99.44
2023-05-22T06:27:10.323Z,99.24
2023-05-22T06:28:10.430Z,99.33
2023-05-22T06:29:10.301Z,99.13
2023-05-22T06:30:10.424Z,99.99
2023-05-22T06:31:10.263Z,99.99
2023-05-22T06:32:10.374Z,99.99
2023-05-22T06:33:10.434Z,99.69
2023-05-22T06:34:10.514Z,98.99
2023-05-22T06:35:10.477Z,98.68
2023-05-22T06:36:10.281Z,99.75
2023-05-22T06:37:10.207Z,99.99
2023-05-22T06:38:10.314Z,99.35
2023-05-22T06:39:10.184Z,98.94
2023-05-22T06:40:10.228Z,99.19
2023-05-22T06:41:10.184Z,99.70
2023-05-22T06:42:10.224Z,99.70
2023-05-22T06:43:10.148Z,99.35
2023-05-22T06:44:10.231Z,99.05
2023-05-22T06:45:10.124Z,98.34
2023-05-22T06:46:10.236Z,97.73
2023-05-22T06:47:10.097Z,97.69
2023-05-22T06:48:10.187Z,97.18
2023-05-22T06:49:10.071Z,97.58
2023-05-22T06:50:10.178Z,97.08
2023-05-22T06:51:10.059Z,96.37
2023-05-22T06:52:10.105Z,96.17
2023-05-22T06:53:10.041Z,95.97
2023-05-22T06:54:10.076Z,95.26
2023-05-22T06:55:10.035Z,95.06
2023-05-22T06:56:10.140Z,96.12
2023-05-22T06:57:09.999Z,97.24
2023-05-22T06:58:10.007Z,96.33
2023-05-22T06:59:09.999Z,95.82
2023-05-22T07:00:10.028Z,95.82
2023-05-22T07:01:10.056Z,96.53
2023-05-22T07:02:10.086Z,96.08
2023-05-22T07:03:09.956Z,95.87
2023-05-22T07:04:09.943Z,95.78
2023-05-22T07:05:09.916Z,96.18
2023-05-22T07:06:10.042Z,95.27
2023-05-22T07:07:09.893Z,96.18
2023-05-22T07:08:10.047Z,95.78
2023-05-22T07:09:09.854Z,96.18
2023-05-22T07:10:09.930Z,96.18
2023-05-22T07:11:09.839Z,97.09
2023-05-22T07:12:09.981Z,96.18
2023-05-22T07:13:09.807Z,95.47
2023-05-22T07:14:09.899Z,96.34
2023-05-22T07:15:09.792Z,97.65
2023-05-22T07:16:09.877Z,96.34
2023-05-22T07:17:09.793Z,96.09
2023-05-22T07:18:09.937Z,95.23
2023-05-22T07:19:09.812Z,94.73
2023-05-22T07:20:09.913Z,93.92
2023-05-22T07:21:09.733Z,91.21
2023-05-22T07:22:09.793Z,89.47
2023-05-22T07:23:09.717Z,88.16
2023-05-22T07:24:09.782Z,89.26
2023-05-22T07:25:09.724Z,89.26
2023-05-22T07:26:09.852Z,88.36
2023-05-22T07:27:09.676Z,87.82
2023-05-22T07:28:09.682Z,86.06
2023-05-22T07:29:09.651Z,84.77
2023-05-22T07:30:09.770Z,84.88
2023-05-22T07:31:09.679Z,85.38
2023-05-22T07:32:09.702Z,85.22
2023-05-22T07:33:09.640Z,86.63
2023-05-22T07:34:09.626Z,86.46
2023-05-22T07:35:09.586Z,86.26
2023-05-22T07:36:09.690Z,86.66
2023-05-22T07:37:09.566Z,87.17
2023-05-22T07:38:09.718Z,86.46
2023-05-22T07:39:09.565Z,86.83
2023-05-22T07:40:09.726Z,86.72
2023-05-22T07:41:09.581Z,86.83
2023-05-22T07:42:09.592Z,87.29
2023-05-22T07:43:09.514Z,84.69
2023-05-22T07:44:09.590Z,82.84
2023-05-22T07:45:09.496Z,82.60
2023-05-22T07:46:09.662Z,81.90
2023-05-22T07:47:09.514Z,81.87
2023-05-22T07:48:09.593Z,81.76
2023-05-22T07:49:09.439Z,81.80
2023-05-22T07:50:09.561Z,80.90
2023-05-22T07:51:09.418Z,82.26
2023-05-22T07:52:09.575Z,81.96
2023-05-22T07:53:09.440Z,82.76
2023-05-22T07:54:09.454Z,82.40
2023-05-22T07:55:09.387Z,82.10
2023-05-22T07:56:09.455Z,82.57
2023-05-22T07:57:09.355Z,81.73
2023-05-22T07:58:09.518Z,81.06
2023-05-22T07:59:09.354Z,81.80
2023-05-22T08:00:09.400Z,82.00
2023-05-22T08:01:09.793Z,81.70
2023-05-22T08:02:09.467Z,79.66
2023-05-22T08:03:09.433Z,80.36
2023-05-22T08:04:09.489Z,80.66
2023-05-22T08:05:09.449Z,81.87
2023-05-22T08:06:09.320Z,81.23
2023-05-22T08:07:09.250Z,81.23
2023-05-22T08:08:09.326Z,81.02
2023-05-22T08:09:09.235Z,79.28
2023-05-22T08:10:09.273Z,78.64
2023-05-22T08:11:09.428Z,79.30
2023-05-22T08:12:09.247Z,76.20
2023-05-22T08:13:09.197Z,76.97
2023-05-22T08:14:09.305Z,74.59
2023-05-22T08:15:09.196Z,71.52
2023-05-22T08:16:09.272Z,69.62
2023-05-22T08:17:09.187Z,70.65
2023-05-22T08:18:09.255Z,68.90
2023-05-22T08:19:09.321Z,66.77
2023-05-22T08:20:09.571Z,64.45
2023-05-22T08:21:09.102Z,63.23
2023-05-22T08:22:09.260Z,64.92
2023-05-22T08:23:09.081Z,63.17
2023-05-22T08:24:09.121Z,63.04
2023-05-22T08:25:09.099Z,62.41
2023-05-22T08:26:09.163Z,60.30
2023-05-22T08:27:09.049Z,62.45
2023-05-22T08:28:09.202Z,61.96
2023-05-22T08:29:09.017Z,59.58
2023-05-22T08:30:09.066Z,60.77
2023-05-22T08:31:09.053Z,59.48
2023-05-22T08:32:09.148Z,59.65
2023-05-22T08:33:09.078Z,61.04
2023-05-22T08:34:09.100Z,62.32
2023-05-22T08:35:08.946Z,58.91
2023-05-22T08:36:09.029Z,59.31
2023-05-22T08:37:08.942Z,59.97
2023-05-22T08:38:09.010Z,59.88
2023-05-22T08:39:08.917Z,59.05
2023-05-22T08:40:09.050Z,58.63
2023-05-22T08:41:08.896Z,58.73
2023-05-22T08:42:08.962Z,57.51
2023-05-22T08:43:08.869Z,59.89
2023-05-22T08:44:08.975Z,59.12
2023-05-22T08:45:08.854Z,59.69
2023-05-22T08:46:08.967Z,59.33
2023-05-22T08:47:08.947Z,56.24
2023-05-22T08:48:08.898Z,58.25
2023-05-22T08:49:08.814Z,59.04
2023-05-22T08:50:08.925Z,58.97
2023-05-22T08:51:08.799Z,57.90
2023-05-22T08:52:08.901Z,56.49
2023-05-22T08:53:08.762Z,58.18
2023-05-22T08:54:08.812Z,58.74
2023-05-22T08:55:08.745Z,57.46
2023-05-22T08:56:08.854Z,58.02
2023-05-22T08:57:08.764Z,56.84
2023-05-22T08:58:08.856Z,57.35
2023-05-22T08:59:08.709Z,57.56
2023-05-22T09:00:08.759Z,59.41
2023-05-22T09:01:08.818Z,59.31
2023-05-22T09:02:08.783Z,57.43
2023-05-22T09:03:08.722Z,57.13
2023-05-22T09:04:08.865Z,55.03
2023-05-22T09:05:08.677Z,55.60
2023-05-22T09:06:08.674Z,55.20
2023-05-22T09:07:08.664Z,57.37
2023-05-22T09:08:19.777Z,54.61
2023-05-22T09:09:08.623Z,57.30
2023-05-22T09:10:08.704Z,55.43
2023-05-22T09:11:08.604Z,55.20
2023-05-22T09:12:08.643Z,54.09
2023-05-22T09:13:08.586Z,55.54
2023-05-22T09:14:08.650Z,53.25
2023-05-22T09:15:08.556Z,53.27
2023-05-22T09:16:08.651Z,53.99
2023-05-22T09:17:08.640Z,53.50
2023-05-22T09:18:08.634Z,55.66
2023-05-22T09:19:08.559Z,57.87
2023-05-22T09:20:08.566Z,55.18
2023-05-22T09:21:21.463Z,55.15
2023-05-22T09:22:08.489Z,55.12
2023-05-22T09:23:08.508Z,53.99
2023-05-22T09:24:08.491Z,52.21
2023-05-22T09:25:08.498Z,53.12
2023-05-22T09:26:08.502Z,52.14
2023-05-22T09:27:08.449Z,54.80
2023-05-22T09:28:08.525Z,51.32
2023-05-22T09:29:08.451Z,53.09
2023-05-22T09:30:08.528Z,52.11
2023-05-22T09:31:08.494Z,51.03
2023-05-22T09:32:08.448Z,50.34
2023-05-22T09:33:08.446Z,51.62
2023-05-22T09:34:08.440Z,52.28
2023-05-22T09:35:08.382Z,51.20
2023-05-22T09:36:08.502Z,49.62
2023-05-22T09:37:08.348Z,51.28
2023-05-22T09:38:09.673Z,50.39
2023-05-22T09:39:08.350Z,50.98
2023-05-22T09:40:08.403Z,50.09
2023-05-22T09:41:08.350Z,50.16
2023-05-22T09:42:08.424Z,50.85
2023-05-22T09:43:08.308Z,50.29
2023-05-22T09:44:08.419Z,50.46
2023-05-22T09:45:08.299Z,48.27
2023-05-22T09:46:08.449Z,48.94
2023-05-22T09:47:08.285Z,47.76
2023-05-22T09:48:08.404Z,47.74
2023-05-22T09:49:08.266Z,48.21
2023-05-22T09:50:08.343Z,49.36
2023-05-22T09:51:08.274Z,47.86
2023-05-22T09:52:08.362Z,46.49
2023-05-22T09:53:08.225Z,46.39
2023-05-22T09:54:08.286Z,47.00
2023-05-22T09:55:08.209Z,48.96
2023-05-22T09:56:08.295Z,47.00
2023-05-22T09:57:08.221Z,49.16
2023-05-22T09:58:08.299Z,45.92
2023-05-22T09:59:08.192Z,46.78
2023-05-22T10:00:08.212Z,47.57
2023-05-22T10:01:08.168Z,44.65
2023-05-22T10:02:08.281Z,44.74
2023-05-22T10:03:08.183Z,45.41
2023-05-22T10:04:08.303Z,44.43
2023-05-22T10:05:08.149Z,45.83
2023-05-22T10:06:08.162Z,46.51
2023-05-22T10:07:08.136Z,47.15
2023-05-22T10:08:08.216Z,48.30
2023-05-22T10:09:08.113Z,49.87
2023-05-22T10:10:08.183Z,53.69
2023-05-22T10:11:08.089Z,52.76
2023-05-22T10:12:08.276Z,52.91
2023-05-22T10:13:08.080Z,56.59
2023-05-22T10:14:08.092Z,53.16
2023-05-22T10:15:08.053Z,54.69
2023-05-22T10:16:08.164Z,57.07
2023-05-22T10:17:08.054Z,56.48
2023-05-22T10:18:08.184Z,56.01
2023-05-22T10:19:08.100Z,60.27
2023-05-22T10:20:08.069Z,56.70
2023-05-22T10:21:08.003Z,58.51
2023-05-22T10:22:08.061Z,58.72
2023-05-22T10:23:08.007Z,57.06
2023-05-22T10:24:08.076Z,59.23
2023-05-22T10:25:10.447Z,59.36
2023-05-22T10:26:08.119Z,59.36
2023-05-22T10:27:07.959Z,63.34
2023-05-22T10:28:08.021Z,59.17
2023-05-22T10:29:07.936Z,58.97
2023-05-22T10:30:08.022Z,58.90
2023-05-22T10:31:07.890Z,63.67
2023-05-22T10:32:07.924Z,59.79
2023-05-22T10:33:07.956Z,58.40
2023-05-22T10:34:08.116Z,57.93
2023-05-22T10:35:07.948Z,60.61
2023-05-22T10:36:08.023Z,60.52
2023-05-22T10:37:16.950Z,64.72
2023-05-22T10:38:07.813Z,62.43
2023-05-22T10:39:07.966Z,60.64
2023-05-22T10:40:07.821Z,60.14
2023-05-22T10:41:07.866Z,56.37
2023-05-22T10:42:07.783Z,59.15
2023-05-22T10:43:07.886Z,57.06
2023-05-22T10:44:07.745Z,57.17
2023-05-22T10:45:07.814Z,60.64
2023-05-22T10:46:07.815Z,58.95
2023-05-22T10:47:07.838Z,59.65
2023-05-22T10:48:07.784Z,60.17
2023-05-22T10:49:07.830Z,59.48
2023-05-22T10:50:07.754Z,59.58
2023-05-22T10:51:07.759Z,60.47
2023-05-22T10:52:07.693Z,62.26
2023-05-22T10:53:07.752Z,57.99
2023-05-22T10:54:07.654Z,57.59
2023-05-22T10:55:07.743Z,59.88
2023-05-22T10:56:07.660Z,59.88
2023-05-22T10:57:07.689Z,58.58
2023-05-22T10:58:07.606Z,59.21
2023-05-22T10:59:07.685Z,60.30
2023-05-22T11:00:07.595Z,58.91
2023-05-22T11:01:07.799Z,60.30
2023-05-22T11:02:09.027Z,58.51
2023-05-22T11:03:17.764Z,60.70
2023-05-22T11:04:07.564Z,59.91
2023-05-22T11:05:07.659Z,59.11
2023-05-22T11:06:07.567Z,60.87
2023-05-22T11:07:07.640Z,58.11
2023-05-22T11:08:07.539Z,58.01
2023-05-22T11:09:07.539Z,58.91
2023-05-22T11:10:07.492Z,59.41
2023-05-22T11:11:07.582Z,58.51
2023-05-22T11:12:07.491Z,58.61
2023-05-22T11:13:07.569Z,60.00
2023-05-22T11:14:07.454Z,58.61
2023-05-22T11:15:07.462Z,58.31
2023-05-22T11:16:07.419Z,60.11
2023-05-22T11:17:07.610Z,58.91
2023-05-22T11:18:07.487Z,60.21
2023-05-22T11:19:21.832Z,58.39
2023-05-22T11:20:07.587Z,58.09
2023-05-22T11:21:07.411Z,58.22
2023-05-22T11:22:07.400Z,56.02
2023-05-22T11:23:07.522Z,57.92
2023-05-22T11:24:07.351Z,58.91
2023-05-22T11:25:07.507Z,58.51
2023-05-22T11:26:07.330Z,62.37
2023-05-22T11:27:07.382Z,58.58
2023-05-22T11:28:07.333Z,60.47
2023-05-22T11:29:07.380Z,56.99
2023-05-22T11:30:07.302Z,57.29
2023-05-22T11:31:07.416Z,56.89
2023-05-22T11:32:07.296Z,58.39
2023-05-22T11:33:07.303Z,57.59
2023-05-22T11:34:07.232Z,59.48
2023-05-22T11:35:07.298Z,57.69
2023-05-22T11:36:07.237Z,57.79
2023-05-22T11:37:07.352Z,60.97
2023-05-22T11:38:07.426Z,60.21
2023-05-22T11:39:07.258Z,61.37
2023-05-22T11:40:07.205Z,58.69
2023-05-22T11:41:07.237Z,58.48
2023-05-22T11:42:07.176Z,57.29
2023-05-22T11:43:07.246Z,60.68
2023-05-22T11:44:07.132Z,57.29
2023-05-22T11:45:07.179Z,58.48
2023-05-22T11:46:07.137Z,57.19
2023-05-22T11:47:07.227Z,57.39
2023-05-22T11:48:07.161Z,57.29
2023-05-22T11:49:07.197Z,56.59
2023-05-22T11:50:07.095Z,56.70
2023-05-22T11:51:07.097Z,55.80
2023-05-22T11:52:07.138Z,54.71
2023-05-22T11:53:07.216Z,54.60
2023-05-22T11:54:07.039Z,57.09
2023-05-22T11:55:08.223Z,53.91
2023-05-22T11:56:07.029Z,52.02
2023-05-22T11:57:07.098Z,56.59
2023-05-22T11:58:07.025Z,60.17
2023-05-22T11:59:08.192Z,59.91
2023-05-22T12:00:07.020Z,61.50
2023-05-22T12:01:09.059Z,61.40
2023-05-22T12:02:06.943Z,60.30
2023-05-22T12:03:07.158Z,61.20
2023-05-22T12:04:07.030Z,61.43
2023-05-22T12:05:07.043Z,59.04
2023-05-22T12:06:06.957Z,60.13
2023-05-22T12:07:07.062Z,62.42
2023-05-22T12:08:06.892Z,65.01
2023-05-22T12:09:07.003Z,61.53
2023-05-22T12:10:06.848Z,61.53
2023-05-22T12:11:07.099Z,57.84
2023-05-22T12:12:06.827Z,59.34
2023-05-22T12:13:06.929Z,58.94
2023-05-22T12:14:06.856Z,57.42
2023-05-22T12:15:06.845Z,63.89
2023-05-22T12:16:06.820Z,60.00
2023-05-22T12:17:06.859Z,60.90
2023-05-22T12:18:06.808Z,61.00
2023-05-22T12:19:06.950Z,61.30
2023-05-22T12:20:06.758Z,62.19
2023-05-22T12:21:06.755Z,58.41
2023-05-22T12:22:06.735Z,56.12
2023-05-22T12:23:06.798Z,56.92
2023-05-22T12:24:06.767Z,60.40
2023-05-22T12:25:06.802Z,57.82
2023-05-22T12:26:06.699Z,57.62
2023-05-22T12:27:06.820Z,56.82
2023-05-22T12:28:06.672Z,57.12
2023-05-22T12:29:06.748Z,59.81
2023-05-22T12:30:06.646Z,57.92
2023-05-22T12:31:06.783Z,57.92
2023-05-22T12:32:06.722Z,55.33
2023-05-22T12:33:06.787Z,56.72
2023-05-22T12:34:06.633Z,56.32
2023-05-22T12:35:06.661Z,57.32
2023-05-22T12:36:06.593Z,56.23
2023-05-22T12:37:06.704Z,54.33
2023-05-22T12:38:06.573Z,58.41
2023-05-22T12:39:06.624Z,57.52
2023-05-22T12:40:06.546Z,57.92
2023-05-22T12:41:06.625Z,56.02
2023-05-22T12:42:06.520Z,58.01
2023-05-22T12:43:06.615Z,57.71
2023-05-22T12:44:06.547Z,54.83
2023-05-22T12:45:06.612Z,55.13
2023-05-22T12:46:06.521Z,56.20
2023-05-22T12:47:06.556Z,56.30
2023-05-22T12:48:06.500Z,54.41
2023-05-22T12:49:06.586Z,55.10
2023-05-22T12:50:06.474Z,55.80
2023-05-22T12:51:06.614Z,55.38
2023-05-22T12:52:06.439Z,55.38